sensor_id;sensor_type;location;lat;lon;timestamp;P1;durP1;ratioP1;P2;durP2;ratioP2
25824;SDS011;13658;44.534;18.694;2023-10-08T00:02:45;27.77;;;15.45;;
25824;SDS011;13658;44.534;18.694;2023-10-08T00:05:11;26.45;;;15.05;;
25824;SDS011;13658;44.534;18.694;2023-10-08T00:07:41;28.00;;;14.82;;
25824;SDS011;13658;44.534;18.694;2023-10-08T00:10:08;28.20;;;16.33;;
25824;SDS011;13658;44.534;18.694;2023-10-08T00:12:34;26.10;;;15.40;;
25824;SDS011;13658;44.534;18.694;2023-10-08T00:15:00;28.88;;;16.15;;
25824;SDS011;13658;44.534;18.694;2023-10-08T00:17:32;31.35;;;16.48;;
25824;SDS011;13658;44.534;18.694;2023-10-08T00:19:58;28.05;;;15.90;;
25824;SDS011;13658;44.534;18.694;2023-10-08T00:22:26;30.83;;;16.55;;
25824;SDS011;13658;44.534;18.694;2023-10-08T00:24:54;27.08;;;15.55;;
25824;SDS011;13658;44.534;18.694;2023-10-08T00:27:23;31.30;;;17.33;;
25824;SDS011;13658;44.534;18.694;2023-10-08T00:29:49;29.48;;;16.42;;
25824;SDS011;13658;44.534;18.694;2023-10-08T00:32:16;26.67;;;15.35;;
25824;SDS011;13658;44.534;18.694;2023-10-08T00:34:42;25.35;;;14.93;;
25824;SDS011;13658;44.534;18.694;2023-10-08T00:37:09;27.92;;;16.17;;
25824;SDS011;13658;44.534;18.694;2023-10-08T00:39:36;23.30;;;14.85;;
25824;SDS011;13658;44.534;18.694;2023-10-08T00:42:05;27.13;;;15.25;;
25824;SDS011;13658;44.534;18.694;2023-10-08T00:44:32;27.13;;;15.40;;
25824;SDS011;13658;44.534;18.694;2023-10-08T00:47:04;26.23;;;15.27;;
25824;SDS011;13658;44.534;18.694;2023-10-08T00:49:32;27.05;;;16.02;;
25824;SDS011;13658;44.534;18.694;2023-10-08T00:52:12;24.35;;;15.20;;
25824;SDS011;13658;44.534;18.694;2023-10-08T00:54:39;28.85;;;14.80;;
25824;SDS011;13658;44.534;18.694;2023-10-08T00:57:28;23.42;;;14.73;;
25824;SDS011;13658;44.534;18.694;2023-10-08T00:59:56;25.70;;;15.05;;
25824;SDS011;13658;44.534;18.694;2023-10-08T01:02:28;26.50;;;15.07;;
25824;SDS011;13658;44.534;18.694;2023-10-08T01:05:08;27.52;;;15.40;;
25824;SDS011;13658;44.534;18.694;2023-10-08T01:07:36;28.17;;;15.75;;
25824;SDS011;13658;44.534;18.694;2023-10-08T01:10:05;25.13;;;14.57;;
25824;SDS011;13658;44.534;18.694;2023-10-08T01:12:35;25.02;;;14.10;;
25824;SDS011;13658;44.534;18.694;2023-10-08T01:15:10;25.83;;;14.88;;
25824;SDS011;13658;44.534;18.694;2023-10-08T01:17:43;23.30;;;14.27;;
25824;SDS011;13658;44.534;18.694;2023-10-08T01:20:18;25.02;;;14.45;;
25824;SDS011;13658;44.534;18.694;2023-10-08T01:23:10;24.92;;;14.73;;
25824;SDS011;13658;44.534;18.694;2023-10-08T01:25:42;25.88;;;14.80;;
25824;SDS011;13658;44.534;18.694;2023-10-08T01:28:09;26.20;;;14.85;;
25824;SDS011;13658;44.534;18.694;2023-10-08T01:31:08;25.50;;;14.77;;
25824;SDS011;13658;44.534;18.694;2023-10-08T01:33:37;25.10;;;14.77;;
25824;SDS011;13658;44.534;18.694;2023-10-08T01:36:08;23.83;;;15.18;;
25824;SDS011;13658;44.534;18.694;2023-10-08T01:38:38;25.70;;;14.60;;
25824;SDS011;13658;44.534;18.694;2023-10-08T01:41:04;29.35;;;15.52;;
25824;SDS011;13658;44.534;18.694;2023-10-08T01:43:47;23.35;;;14.23;;
25824;SDS011;13658;44.534;18.694;2023-10-08T01:46:13;22.70;;;14.48;;
25824;SDS011;13658;44.534;18.694;2023-10-08T01:48:41;25.70;;;14.48;;
25824;SDS011;13658;44.534;18.694;2023-10-08T01:51:10;24.52;;;14.32;;
25824;SDS011;13658;44.534;18.694;2023-10-08T01:53:37;25.80;;;14.85;;
25824;SDS011;13658;44.534;18.694;2023-10-08T01:56:04;27.42;;;14.48;;
25824;SDS011;13658;44.534;18.694;2023-10-08T01:58:31;24.05;;;13.85;;
25824;SDS011;13658;44.534;18.694;2023-10-08T02:00:59;22.42;;;14.02;;
25824;SDS011;13658;44.534;18.694;2023-10-08T02:03:25;24.17;;;14.55;;
25824;SDS011;13658;44.534;18.694;2023-10-08T02:05:55;22.38;;;13.63;;
25824;SDS011;13658;44.534;18.694;2023-10-08T02:08:24;25.10;;;13.77;;
25824;SDS011;13658;44.534;18.694;2023-10-08T02:10:51;23.58;;;14.55;;
25824;SDS011;13658;44.534;18.694;2023-10-08T02:13:18;23.42;;;14.52;;
25824;SDS011;13658;44.534;18.694;2023-10-08T02:15:45;21.58;;;13.38;;
25824;SDS011;13658;44.534;18.694;2023-10-08T02:18:15;28.45;;;14.02;;
25824;SDS011;13658;44.534;18.694;2023-10-08T02:20:42;22.70;;;13.80;;
25824;SDS011;13658;44.534;18.694;2023-10-08T02:23:08;22.10;;;12.60;;
25824;SDS011;13658;44.534;18.694;2023-10-08T02:25:40;20.58;;;12.98;;
25824;SDS011;13658;44.534;18.694;2023-10-08T02:28:07;22.63;;;13.25;;
25824;SDS011;13658;44.534;18.694;2023-10-08T02:30:38;23.80;;;13.93;;
25824;SDS011;13658;44.534;18.694;2023-10-08T02:33:07;21.92;;;13.30;;
25824;SDS011;13658;44.534;18.694;2023-10-08T02:35:40;22.85;;;13.70;;
25824;SDS011;13658;44.534;18.694;2023-10-08T02:38:16;24.08;;;13.85;;
25824;SDS011;13658;44.534;18.694;2023-10-08T02:40:43;24.67;;;13.27;;
25824;SDS011;13658;44.534;18.694;2023-10-08T02:43:14;21.98;;;13.32;;
25824;SDS011;13658;44.534;18.694;2023-10-08T02:45:41;23.30;;;12.77;;
25824;SDS011;13658;44.534;18.694;2023-10-08T02:48:09;22.95;;;13.25;;
25824;SDS011;13658;44.534;18.694;2023-10-08T02:50:38;21.58;;;12.65;;
25824;SDS011;13658;44.534;18.694;2023-10-08T02:53:06;22.65;;;13.48;;
25824;SDS011;13658;44.534;18.694;2023-10-08T02:55:39;20.80;;;12.75;;
25824;SDS011;13658;44.534;18.694;2023-10-08T02:58:15;21.10;;;13.52;;
25824;SDS011;13658;44.534;18.694;2023-10-08T03:00:45;23.95;;;13.73;;
25824;SDS011;13658;44.534;18.694;2023-10-08T03:03:12;24.02;;;14.07;;
25824;SDS011;13658;44.534;18.694;2023-10-08T03:05:43;21.38;;;13.18;;
25824;SDS011;13658;44.534;18.694;2023-10-08T03:08:15;23.77;;;13.55;;
25824;SDS011;13658;44.534;18.694;2023-10-08T03:10:51;22.15;;;13.43;;
25824;SDS011;13658;44.534;18.694;2023-10-08T03:13:21;24.48;;;14.68;;
25824;SDS011;13658;44.534;18.694;2023-10-08T03:15:47;26.48;;;14.57;;
25824;SDS011;13658;44.534;18.694;2023-10-08T03:18:33;23.67;;;14.98;;
25824;SDS011;13658;44.534;18.694;2023-10-08T03:21:07;23.10;;;14.40;;
25824;SDS011;13658;44.534;18.694;2023-10-08T03:23:46;22.77;;;14.27;;
25824;SDS011;13658;44.534;18.694;2023-10-08T03:26:13;24.90;;;13.60;;
25824;SDS011;13658;44.534;18.694;2023-10-08T03:29:00;23.40;;;14.38;;
25824;SDS011;13658;44.534;18.694;2023-10-08T03:31:33;24.70;;;14.68;;
25824;SDS011;13658;44.534;18.694;2023-10-08T03:34:18;22.60;;;13.82;;
25824;SDS011;13658;44.534;18.694;2023-10-08T03:36:45;23.33;;;13.40;;
25824;SDS011;13658;44.534;18.694;2023-10-08T03:39:14;23.48;;;13.27;;
25824;SDS011;13658;44.534;18.694;2023-10-08T03:41:41;22.88;;;13.77;;
25824;SDS011;13658;44.534;18.694;2023-10-08T03:44:16;24.63;;;14.85;;
25824;SDS011;13658;44.534;18.694;2023-10-08T03:46:43;23.05;;;14.70;;
25824;SDS011;13658;44.534;18.694;2023-10-08T03:49:14;26.70;;;14.00;;
25824;SDS011;13658;44.534;18.694;2023-10-08T03:51:51;22.52;;;14.15;;
25824;SDS011;13658;44.534;18.694;2023-10-08T03:54:17;21.30;;;13.75;;
25824;SDS011;13658;44.534;18.694;2023-10-08T03:56:45;25.48;;;14.75;;
25824;SDS011;13658;44.534;18.694;2023-10-08T03:59:17;23.92;;;14.10;;
25824;SDS011;13658;44.534;18.694;2023-10-08T04:04:39;24.73;;;14.02;;
25824;SDS011;13658;44.534;18.694;2023-10-08T04:07:21;22.88;;;14.18;;
25824;SDS011;13658;44.534;18.694;2023-10-08T04:10:24;22.15;;;14.48;;
25824;SDS011;13658;44.534;18.694;2023-10-08T04:13:04;19.63;;;13.60;;
25824;SDS011;13658;44.534;18.694;2023-10-08T04:15:37;23.67;;;13.70;;
25824;SDS011;13658;44.534;18.694;2023-10-08T04:18:07;25.25;;;13.90;;
25824;SDS011;13658;44.534;18.694;2023-10-08T04:20:33;24.10;;;14.27;;
25824;SDS011;13658;44.534;18.694;2023-10-08T04:23:03;22.27;;;13.68;;
25824;SDS011;13658;44.534;18.694;2023-10-08T04:25:31;22.73;;;13.70;;
25824;SDS011;13658;44.534;18.694;2023-10-08T04:27:58;20.63;;;13.18;;
25824;SDS011;13658;44.534;18.694;2023-10-08T04:30:25;23.70;;;14.85;;
25824;SDS011;13658;44.534;18.694;2023-10-08T04:33:02;24.70;;;14.90;;
25824;SDS011;13658;44.534;18.694;2023-10-08T04:35:33;23.65;;;13.48;;
25824;SDS011;13658;44.534;18.694;2023-10-08T04:38:10;21.10;;;13.23;;
25824;SDS011;13658;44.534;18.694;2023-10-08T04:40:36;21.02;;;13.00;;
25824;SDS011;13658;44.534;18.694;2023-10-08T04:43:17;21.25;;;12.77;;
25824;SDS011;13658;44.534;18.694;2023-10-08T04:45:51;23.08;;;13.82;;
25824;SDS011;13658;44.534;18.694;2023-10-08T04:48:49;22.00;;;14.23;;
25824;SDS011;13658;44.534;18.694;2023-10-08T04:51:16;21.75;;;12.70;;
25824;SDS011;13658;44.534;18.694;2023-10-08T04:53:43;22.63;;;12.95;;
25824;SDS011;13658;44.534;18.694;2023-10-08T04:56:11;23.23;;;13.82;;
25824;SDS011;13658;44.534;18.694;2023-10-08T04:58:47;22.42;;;14.57;;
25824;SDS011;13658;44.534;18.694;2023-10-08T05:01:13;22.27;;;14.02;;
25824;SDS011;13658;44.534;18.694;2023-10-08T05:03:47;24.38;;;14.18;;
25824;SDS011;13658;44.534;18.694;2023-10-08T05:06:27;24.52;;;13.98;;
25824;SDS011;13658;44.534;18.694;2023-10-08T05:09:09;23.70;;;13.45;;
25824;SDS011;13658;44.534;18.694;2023-10-08T05:11:49;26.05;;;14.23;;
25824;SDS011;13658;44.534;18.694;2023-10-08T05:14:17;23.90;;;13.82;;
25824;SDS011;13658;44.534;18.694;2023-10-08T05:17:06;27.30;;;14.57;;
25824;SDS011;13658;44.534;18.694;2023-10-08T05:19:37;24.20;;;15.85;;
25824;SDS011;13658;44.534;18.694;2023-10-08T05:22:07;25.40;;;15.88;;
25824;SDS011;13658;44.534;18.694;2023-10-08T05:24:52;28.48;;;16.90;;
25824;SDS011;13658;44.534;18.694;2023-10-08T05:27:40;28.00;;;17.17;;
25824;SDS011;13658;44.534;18.694;2023-10-08T05:30:31;28.48;;;17.38;;
25824;SDS011;13658;44.534;18.694;2023-10-08T05:33:04;28.92;;;18.00;;
25824;SDS011;13658;44.534;18.694;2023-10-08T05:35:35;27.80;;;15.63;;
25824;SDS011;13658;44.534;18.694;2023-10-08T05:41:03;31.60;;;18.87;;
25824;SDS011;13658;44.534;18.694;2023-10-08T05:43:31;34.00;;;19.02;;
25824;SDS011;13658;44.534;18.694;2023-10-08T05:46:11;26.10;;;16.85;;
25824;SDS011;13658;44.534;18.694;2023-10-08T05:48:54;26.70;;;14.90;;
25824;SDS011;13658;44.534;18.694;2023-10-08T05:51:46;26.67;;;15.63;;
25824;SDS011;13658;44.534;18.694;2023-10-08T05:54:13;24.10;;;14.95;;
25824;SDS011;13658;44.534;18.694;2023-10-08T05:57:08;24.33;;;14.13;;
25824;SDS011;13658;44.534;18.694;2023-10-08T06:02:23;27.67;;;15.60;;
25824;SDS011;13658;44.534;18.694;2023-10-08T06:04:59;31.40;;;16.45;;
25824;SDS011;13658;44.534;18.694;2023-10-08T06:07:46;27.75;;;15.45;;
25824;SDS011;13658;44.534;18.694;2023-10-08T06:10:13;26.95;;;15.75;;
25824;SDS011;13658;44.534;18.694;2023-10-08T06:13:16;24.33;;;14.80;;
25824;SDS011;13658;44.534;18.694;2023-10-08T06:15:42;28.63;;;16.02;;
25824;SDS011;13658;44.534;18.694;2023-10-08T06:18:16;31.33;;;17.73;;
25824;SDS011;13658;44.534;18.694;2023-10-08T06:20:46;34.15;;;18.70;;
25824;SDS011;13658;44.534;18.694;2023-10-08T06:23:13;34.65;;;17.02;;
25824;SDS011;13658;44.534;18.694;2023-10-08T06:25:47;27.30;;;16.65;;
25824;SDS011;13658;44.534;18.694;2023-10-08T06:28:19;25.67;;;15.77;;
25824;SDS011;13658;44.534;18.694;2023-10-08T06:30:49;27.38;;;16.02;;
25824;SDS011;13658;44.534;18.694;2023-10-08T06:33:19;26.58;;;15.90;;
25824;SDS011;13658;44.534;18.694;2023-10-08T06:35:50;32.30;;;17.02;;
25824;SDS011;13658;44.534;18.694;2023-10-08T06:38:31;25.48;;;14.50;;
25824;SDS011;13658;44.534;18.694;2023-10-08T06:40:58;27.67;;;15.63;;
25824;SDS011;13658;44.534;18.694;2023-10-08T06:43:28;28.27;;;15.63;;
25824;SDS011;13658;44.534;18.694;2023-10-08T06:45:54;26.33;;;14.60;;
25824;SDS011;13658;44.534;18.694;2023-10-08T06:48:23;21.40;;;13.55;;
25824;SDS011;13658;44.534;18.694;2023-10-08T06:50:52;23.52;;;13.77;;
25824;SDS011;13658;44.534;18.694;2023-10-08T06:53:33;21.55;;;13.35;;
25824;SDS011;13658;44.534;18.694;2023-10-08T06:55:59;23.27;;;12.48;;
25824;SDS011;13658;44.534;18.694;2023-10-08T06:58:29;24.05;;;15.63;;
25824;SDS011;13658;44.534;18.694;2023-10-08T07:00:59;24.52;;;13.93;;
25824;SDS011;13658;44.534;18.694;2023-10-08T07:03:30;25.13;;;15.82;;
25824;SDS011;13658;44.534;18.694;2023-10-08T07:05:57;22.38;;;16.58;;
25824;SDS011;13658;44.534;18.694;2023-10-08T07:08:25;27.38;;;17.05;;
25824;SDS011;13658;44.534;18.694;2023-10-08T07:10:59;25.52;;;16.98;;
25824;SDS011;13658;44.534;18.694;2023-10-08T07:13:36;24.67;;;16.73;;
25824;SDS011;13658;44.534;18.694;2023-10-08T07:16:04;27.95;;;17.30;;
25824;SDS011;13658;44.534;18.694;2023-10-08T07:18:31;25.27;;;15.50;;
25824;SDS011;13658;44.534;18.694;2023-10-08T07:20:59;23.23;;;15.85;;
25824;SDS011;13658;44.534;18.694;2023-10-08T07:23:29;23.63;;;14.45;;
25824;SDS011;13658;44.534;18.694;2023-10-08T07:26:00;25.15;;;15.95;;
25824;SDS011;13658;44.534;18.694;2023-10-08T07:28:37;23.15;;;15.35;;
25824;SDS011;13658;44.534;18.694;2023-10-08T07:31:16;26.33;;;15.70;;
25824;SDS011;13658;44.534;18.694;2023-10-08T07:33:43;24.02;;;14.90;;
25824;SDS011;13658;44.534;18.694;2023-10-08T07:36:11;22.50;;;14.68;;
25824;SDS011;13658;44.534;18.694;2023-10-08T07:38:38;26.25;;;15.43;;
25824;SDS011;13658;44.534;18.694;2023-10-08T07:41:07;22.23;;;14.95;;
25824;SDS011;13658;44.534;18.694;2023-10-08T07:43:37;25.67;;;14.75;;
25824;SDS011;13658;44.534;18.694;2023-10-08T07:46:04;24.83;;;14.20;;
25824;SDS011;13658;44.534;18.694;2023-10-08T07:48:31;23.38;;;14.98;;
25824;SDS011;13658;44.534;18.694;2023-10-08T07:50:57;24.60;;;14.25;;
25824;SDS011;13658;44.534;18.694;2023-10-08T07:53:23;21.58;;;13.63;;
25824;SDS011;13658;44.534;18.694;2023-10-08T07:55:50;20.60;;;12.20;;
25824;SDS011;13658;44.534;18.694;2023-10-08T07:58:17;21.27;;;14.70;;
25824;SDS011;13658;44.534;18.694;2023-10-08T08:00:43;21.95;;;13.70;;
25824;SDS011;13658;44.534;18.694;2023-10-08T08:03:21;19.92;;;12.98;;
25824;SDS011;13658;44.534;18.694;2023-10-08T08:05:48;25.20;;;14.73;;
25824;SDS011;13658;44.534;18.694;2023-10-08T08:08:17;50.33;;;30.95;;
25824;SDS011;13658;44.534;18.694;2023-10-08T08:10:47;43.20;;;27.27;;
25824;SDS011;13658;44.534;18.694;2023-10-08T08:13:16;31.08;;;17.55;;
25824;SDS011;13658;44.534;18.694;2023-10-08T08:15:46;24.75;;;14.23;;
25824;SDS011;13658;44.534;18.694;2023-10-08T08:18:19;17.75;;;10.18;;
25824;SDS011;13658;44.534;18.694;2023-10-08T08:20:48;19.73;;;10.23;;
25824;SDS011;13658;44.534;18.694;2023-10-08T08:23:17;21.40;;;12.30;;
25824;SDS011;13658;44.534;18.694;2023-10-08T08:25:43;46.03;;;27.90;;
25824;SDS011;13658;44.534;18.694;2023-10-08T08:28:21;26.10;;;16.20;;
25824;SDS011;13658;44.534;18.694;2023-10-08T08:30:52;19.42;;;11.52;;
25824;SDS011;13658;44.534;18.694;2023-10-08T08:33:23;20.25;;;12.52;;
25824;SDS011;13658;44.534;18.694;2023-10-08T08:36:02;29.40;;;16.48;;
25824;SDS011;13658;44.534;18.694;2023-10-08T08:38:33;30.05;;;18.58;;
25824;SDS011;13658;44.534;18.694;2023-10-08T08:41:03;29.23;;;17.02;;
25824;SDS011;13658;44.534;18.694;2023-10-08T08:43:36;26.67;;;15.40;;
25824;SDS011;13658;44.534;18.694;2023-10-08T08:46:05;25.30;;;16.60;;
25824;SDS011;13658;44.534;18.694;2023-10-08T08:48:33;32.92;;;17.40;;
25824;SDS011;13658;44.534;18.694;2023-10-08T08:51:00;29.48;;;19.10;;
25824;SDS011;13658;44.534;18.694;2023-10-08T08:53:26;40.03;;;25.70;;
25824;SDS011;13658;44.534;18.694;2023-10-08T08:55:54;42.47;;;26.00;;
25824;SDS011;13658;44.534;18.694;2023-10-08T08:58:20;61.75;;;36.47;;
25824;SDS011;13658;44.534;18.694;2023-10-08T09:00:50;41.15;;;23.20;;
25824;SDS011;13658;44.534;18.694;2023-10-08T09:03:19;34.38;;;21.70;;
25824;SDS011;13658;44.534;18.694;2023-10-08T09:05:45;32.50;;;18.77;;
25824;SDS011;13658;44.534;18.694;2023-10-08T09:08:16;27.65;;;17.77;;
25824;SDS011;13658;44.534;18.694;2023-10-08T09:10:43;27.90;;;16.05;;
25824;SDS011;13658;44.534;18.694;2023-10-08T09:13:24;44.58;;;26.42;;
25824;SDS011;13658;44.534;18.694;2023-10-08T09:16:23;42.67;;;25.08;;
25824;SDS011;13658;44.534;18.694;2023-10-08T09:18:43;32.75;;;20.65;;
25824;SDS011;13658;44.534;18.694;2023-10-08T09:21:16;37.80;;;23.75;;
25824;SDS011;13658;44.534;18.694;2023-10-08T09:23:51;38.50;;;24.52;;
25824;SDS011;13658;44.534;18.694;2023-10-08T09:26:25;38.03;;;22.58;;
25824;SDS011;13658;44.534;18.694;2023-10-08T09:28:54;29.85;;;20.70;;
25824;SDS011;13658;44.534;18.694;2023-10-08T09:31:22;27.45;;;17.27;;
25824;SDS011;13658;44.534;18.694;2023-10-08T09:33:55;34.80;;;21.17;;
25824;SDS011;13658;44.534;18.694;2023-10-08T09:36:25;30.73;;;19.27;;
25824;SDS011;13658;44.534;18.694;2023-10-08T09:39:03;31.52;;;19.88;;
25824;SDS011;13658;44.534;18.694;2023-10-08T09:41:32;28.75;;;18.63;;
25824;SDS011;13658;44.534;18.694;2023-10-08T09:44:02;28.90;;;19.63;;
25824;SDS011;13658;44.534;18.694;2023-10-08T09:46:31;28.48;;;18.20;;
25824;SDS011;13658;44.534;18.694;2023-10-08T09:49:03;24.13;;;16.90;;
25824;SDS011;13658;44.534;18.694;2023-10-08T09:51:33;27.55;;;17.27;;
25824;SDS011;13658;44.534;18.694;2023-10-08T09:54:12;26.90;;;16.88;;
25824;SDS011;13658;44.534;18.694;2023-10-08T09:56:46;27.83;;;17.48;;
25824;SDS011;13658;44.534;18.694;2023-10-08T09:59:13;26.02;;;17.80;;
25824;SDS011;13658;44.534;18.694;2023-10-08T10:01:41;26.77;;;16.67;;
25824;SDS011;13658;44.534;18.694;2023-10-08T10:04:09;25.27;;;16.23;;
25824;SDS011;13658;44.534;18.694;2023-10-08T10:06:36;23.98;;;15.55;;
25824;SDS011;13658;44.534;18.694;2023-10-08T10:09:05;22.63;;;13.77;;
25824;SDS011;13658;44.534;18.694;2023-10-08T10:11:45;22.50;;;13.77;;
25824;SDS011;13658;44.534;18.694;2023-10-08T10:14:15;23.50;;;13.85;;
25824;SDS011;13658;44.534;18.694;2023-10-08T10:17:04;22.00;;;13.98;;
25824;SDS011;13658;44.534;18.694;2023-10-08T10:19:41;21.40;;;13.55;;
25824;SDS011;13658;44.534;18.694;2023-10-08T10:22:14;22.85;;;12.80;;
25824;SDS011;13658;44.534;18.694;2023-10-08T10:24:53;20.23;;;12.73;;
25824;SDS011;13658;44.534;18.694;2023-10-08T10:27:19;17.88;;;13.07;;
25824;SDS011;13658;44.534;18.694;2023-10-08T10:29:44;18.73;;;12.82;;
25824;SDS011;13658;44.534;18.694;2023-10-08T10:32:13;19.38;;;11.90;;
25824;SDS011;13658;44.534;18.694;2023-10-08T10:34:41;19.27;;;12.30;;
25824;SDS011;13658;44.534;18.694;2023-10-08T10:37:08;19.52;;;12.55;;
25824;SDS011;13658;44.534;18.694;2023-10-08T10:40:05;19.17;;;13.65;;
25824;SDS011;13658;44.534;18.694;2023-10-08T10:42:39;20.00;;;13.50;;
25824;SDS011;13658;44.534;18.694;2023-10-08T10:45:14;19.17;;;12.70;;
25824;SDS011;13658;44.534;18.694;2023-10-08T10:47:59;19.80;;;13.05;;
25824;SDS011;13658;44.534;18.694;2023-10-08T10:50:39;17.25;;;12.75;;
25824;SDS011;13658;44.534;18.694;2023-10-08T10:53:27;17.23;;;11.68;;
25824;SDS011;13658;44.534;18.694;2023-10-08T10:55:55;17.27;;;12.07;;
25824;SDS011;13658;44.534;18.694;2023-10-08T10:58:31;15.70;;;10.05;;
25824;SDS011;13658;44.534;18.694;2023-10-08T11:01:04;17.40;;;10.95;;
25824;SDS011;13658;44.534;18.694;2023-10-08T11:03:39;17.08;;;12.10;;
25824;SDS011;13658;44.534;18.694;2023-10-08T11:06:14;16.73;;;10.98;;
25824;SDS011;13658;44.534;18.694;2023-10-08T11:08:48;15.05;;;10.50;;
25824;SDS011;13658;44.534;18.694;2023-10-08T11:11:28;16.73;;;11.15;;
25824;SDS011;13658;44.534;18.694;2023-10-08T11:13:59;16.98;;;10.90;;
25824;SDS011;13658;44.534;18.694;2023-10-08T11:16:31;15.27;;;11.13;;
25824;SDS011;13658;44.534;18.694;2023-10-08T11:19:01;17.05;;;10.50;;
25824;SDS011;13658;44.534;18.694;2023-10-08T11:26:59;25.00;;;16.50;;
25824;SDS011;13658;44.534;18.694;2023-10-08T11:29:44;14.82;;;9.55;;
25824;SDS011;13658;44.534;18.694;2023-10-08T11:32:15;20.25;;;12.77;;
25824;SDS011;13658;44.534;18.694;2023-10-08T11:34:46;19.17;;;13.40;;
25824;SDS011;13658;44.534;18.694;2023-10-08T11:37:28;16.10;;;9.52;;
25824;SDS011;13658;44.534;18.694;2023-10-08T11:39:55;17.55;;;10.32;;
25824;SDS011;13658;44.534;18.694;2023-10-08T11:42:25;17.58;;;9.57;;
25824;SDS011;13658;44.534;18.694;2023-10-08T11:45:11;17.83;;;10.30;;
25824;SDS011;13658;44.534;18.694;2023-10-08T11:47:43;16.67;;;10.55;;
25824;SDS011;13658;44.534;18.694;2023-10-08T11:50:30;16.10;;;8.85;;
25824;SDS011;13658;44.534;18.694;2023-10-08T11:52:57;13.27;;;8.38;;
25824;SDS011;13658;44.534;18.694;2023-10-08T11:55:34;17.17;;;9.93;;
25824;SDS011;13658;44.534;18.694;2023-10-08T11:58:07;17.38;;;10.07;;
25824;SDS011;13658;44.534;18.694;2023-10-08T12:00:37;13.90;;;8.68;;
25824;SDS011;13658;44.534;18.694;2023-10-08T12:03:11;16.47;;;9.63;;
25824;SDS011;13658;44.534;18.694;2023-10-08T12:05:38;17.58;;;8.85;;
25824;SDS011;13658;44.534;18.694;2023-10-08T12:10:42;17.35;;;11.82;;
25824;SDS011;13658;44.534;18.694;2023-10-08T12:13:11;20.52;;;13.63;;
25824;SDS011;13658;44.534;18.694;2023-10-08T12:15:37;21.33;;;12.05;;
25824;SDS011;13658;44.534;18.694;2023-10-08T12:18:06;19.35;;;11.45;;
25824;SDS011;13658;44.534;18.694;2023-10-08T12:20:59;19.65;;;12.27;;
25824;SDS011;13658;44.534;18.694;2023-10-08T12:23:28;22.05;;;12.88;;
25824;SDS011;13658;44.534;18.694;2023-10-08T12:25:58;16.27;;;11.18;;
25824;SDS011;13658;44.534;18.694;2023-10-08T12:28:25;19.35;;;11.85;;
25824;SDS011;13658;44.534;18.694;2023-10-08T12:30:54;19.75;;;11.82;;
25824;SDS011;13658;44.534;18.694;2023-10-08T12:33:23;16.92;;;10.98;;
25824;SDS011;13658;44.534;18.694;2023-10-08T12:35:51;20.48;;;11.18;;
25824;SDS011;13658;44.534;18.694;2023-10-08T12:38:21;21.00;;;10.65;;
25824;SDS011;13658;44.534;18.694;2023-10-08T12:40:48;24.15;;;13.13;;
25824;SDS011;13658;44.534;18.694;2023-10-08T12:43:21;21.77;;;12.38;;
25824;SDS011;13658;44.534;18.694;2023-10-08T12:45:52;17.80;;;11.95;;
25824;SDS011;13658;44.534;18.694;2023-10-08T12:48:25;24.52;;;15.68;;
25824;SDS011;13658;44.534;18.694;2023-10-08T12:50:52;28.65;;;16.90;;
25824;SDS011;13658;44.534;18.694;2023-10-08T12:53:19;20.83;;;12.73;;
25824;SDS011;13658;44.534;18.694;2023-10-08T12:55:55;21.58;;;12.98;;
25824;SDS011;13658;44.534;18.694;2023-10-08T12:58:23;21.35;;;12.85;;
25824;SDS011;13658;44.534;18.694;2023-10-08T13:00:55;26.67;;;14.63;;
25824;SDS011;13658;44.534;18.694;2023-10-08T13:03:28;22.17;;;12.03;;
25824;SDS011;13658;44.534;18.694;2023-10-08T13:05:58;22.00;;;11.23;;
25824;SDS011;13658;44.534;18.694;2023-10-08T13:08:31;22.73;;;11.88;;
25824;SDS011;13658;44.534;18.694;2023-10-08T13:10:59;25.45;;;12.90;;
25824;SDS011;13658;44.534;18.694;2023-10-08T13:13:26;24.30;;;12.68;;
25824;SDS011;13658;44.534;18.694;2023-10-08T13:15:56;28.13;;;13.88;;
25824;SDS011;13658;44.534;18.694;2023-10-08T13:18:25;25.63;;;13.57;;
25824;SDS011;13658;44.534;18.694;2023-10-08T13:20:52;28.77;;;13.38;;
25824;SDS011;13658;44.534;18.694;2023-10-08T13:23:18;27.95;;;13.82;;
25824;SDS011;13658;44.534;18.694;2023-10-08T13:25:52;27.67;;;14.60;;
25824;SDS011;13658;44.534;18.694;2023-10-08T13:28:20;22.35;;;13.00;;
25824;SDS011;13658;44.534;18.694;2023-10-08T13:30:50;27.20;;;14.05;;
25824;SDS011;13658;44.534;18.694;2023-10-08T13:33:23;24.48;;;13.80;;
25824;SDS011;13658;44.534;18.694;2023-10-08T13:35:49;25.67;;;13.38;;
25824;SDS011;13658;44.534;18.694;2023-10-08T13:38:19;27.45;;;14.75;;
25824;SDS011;13658;44.534;18.694;2023-10-08T13:40:51;27.88;;;13.07;;
25824;SDS011;13658;44.534;18.694;2023-10-08T13:43:33;24.05;;;13.88;;
25824;SDS011;13658;44.534;18.694;2023-10-08T13:46:04;24.50;;;13.65;;
25824;SDS011;13658;44.534;18.694;2023-10-08T13:48:41;26.63;;;12.85;;
25824;SDS011;13658;44.534;18.694;2023-10-08T13:51:12;20.20;;;12.70;;
25824;SDS011;13658;44.534;18.694;2023-10-08T13:54:03;24.07;;;13.07;;
25824;SDS011;13658;44.534;18.694;2023-10-08T13:56:34;29.30;;;15.52;;
25824;SDS011;13658;44.534;18.694;2023-10-08T13:59:03;23.65;;;13.93;;
25824;SDS011;13658;44.534;18.694;2023-10-08T14:01:37;24.85;;;12.45;;
25824;SDS011;13658;44.534;18.694;2023-10-08T14:04:06;23.20;;;12.63;;
25824;SDS011;13658;44.534;18.694;2023-10-08T14:06:36;21.70;;;12.45;;
25824;SDS011;13658;44.534;18.694;2023-10-08T14:09:13;26.88;;;13.98;;
25824;SDS011;13658;44.534;18.694;2023-10-08T14:11:46;30.58;;;14.75;;
25824;SDS011;13658;44.534;18.694;2023-10-08T14:14:15;24.88;;;13.13;;
25824;SDS011;13658;44.534;18.694;2023-10-08T14:16:43;27.45;;;13.27;;
25824;SDS011;13658;44.534;18.694;2023-10-08T14:19:12;22.38;;;12.68;;
25824;SDS011;13658;44.534;18.694;2023-10-08T14:21:42;18.60;;;9.07;;
25824;SDS011;13658;44.534;18.694;2023-10-08T14:24:16;20.08;;;7.15;;
25824;SDS011;13658;44.534;18.694;2023-10-08T14:26:42;20.77;;;10.65;;
25824;SDS011;13658;44.534;18.694;2023-10-08T14:29:11;17.52;;;7.20;;
25824;SDS011;13658;44.534;18.694;2023-10-08T14:31:40;15.93;;;7.45;;
25824;SDS011;13658;44.534;18.694;2023-10-08T14:34:09;20.35;;;7.78;;
25824;SDS011;13658;44.534;18.694;2023-10-08T14:36:44;18.90;;;7.90;;
25824;SDS011;13658;44.534;18.694;2023-10-08T14:39:30;17.58;;;6.93;;
25824;SDS011;13658;44.534;18.694;2023-10-08T14:42:18;17.23;;;7.10;;
25824;SDS011;13658;44.534;18.694;2023-10-08T14:45:05;17.90;;;7.38;;
25824;SDS011;13658;44.534;18.694;2023-10-08T14:47:39;21.03;;;8.50;;
25824;SDS011;13658;44.534;18.694;2023-10-08T14:50:06;19.88;;;8.32;;
25824;SDS011;13658;44.534;18.694;2023-10-08T14:52:44;22.15;;;9.52;;
25824;SDS011;13658;44.534;18.694;2023-10-08T14:55:11;19.40;;;8.30;;